sensor_id;sensor_type;location;lat;lon;timestamp;pressure;altitude;pressure_sealevel;temperature
62930;BMP280;49036;42.782;23.108;2023-05-19T00:01:35;94161.97;;;8.27
62930;BMP280;49036;42.782;23.108;2023-05-19T00:04:02;94175.59;;;8.25
62930;BMP280;49036;42.782;23.108;2023-05-19T00:06:30;94167.72;;;8.21
62930;BMP280;49036;42.782;23.108;2023-05-19T00:09:06;94178.06;;;8.20
62930;BMP280;49036;42.782;23.108;2023-05-19T00:11:33;94175.47;;;8.23
62930;BMP280;49036;42.782;23.108;2023-05-19T00:14:03;94173.25;;;8.21
62930;BMP280;49036;42.782;23.108;2023-05-19T00:16:29;94174.72;;;8.22
62930;BMP280;49036;42.782;23.108;2023-05-19T00:18:59;94180.25;;;8.22
62930;BMP280;49036;42.782;23.108;2023-05-19T00:21:25;94174.78;;;8.14
62930;BMP280;49036;42.782;23.108;2023-05-19T00:23:51;94175.19;;;8.11
62930;BMP280;49036;42.782;23.108;2023-05-19T00:26:16;94172.50;;;8.03
62930;BMP280;49036;42.782;23.108;2023-05-19T00:28:42;94177.28;;;8.03
62930;BMP280;49036;42.782;23.108;2023-05-19T00:31:08;94175.13;;;7.94
62930;BMP280;49036;42.782;23.108;2023-05-19T00:33:33;94174.97;;;7.91
62930;BMP280;49036;42.782;23.108;2023-05-19T00:36:00;94166.16;;;7.85
62930;BMP280;49036;42.782;23.108;2023-05-19T00:38:29;94181.88;;;7.83
62930;BMP280;49036;42.782;23.108;2023-05-19T00:40:54;94178.75;;;7.79
62930;BMP280;49036;42.782;23.108;2023-05-19T00:43:20;94170.84;;;7.75
62930;BMP280;49036;42.782;23.108;2023-05-19T00:45:46;94168.44;;;7.79
62930;BMP280;49036;42.782;23.108;2023-05-19T00:48:11;94159.97;;;7.77
62930;BMP280;49036;42.782;23.108;2023-05-19T00:50:37;94164.56;;;7.75
62930;BMP280;49036;42.782;23.108;2023-05-19T00:53:02;94150.75;;;7.75
62930;BMP280;49036;42.782;23.108;2023-05-19T00:55:29;94155.41;;;7.72
62930;BMP280;49036;42.782;23.108;2023-05-19T00:57:56;94152.66;;;7.72
62930;BMP280;49036;42.782;23.108;2023-05-19T01:00:22;94161.88;;;7.67
62930;BMP280;49036;42.782;23.108;2023-05-19T01:02:47;94159.41;;;7.54
62930;BMP280;49036;42.782;23.108;2023-05-19T01:05:15;94159.09;;;7.42
62930;BMP280;49036;42.782;23.108;2023-05-19T01:07:41;94163.22;;;7.34
62930;BMP280;49036;42.782;23.108;2023-05-19T01:10:07;94169.66;;;7.28
62930;BMP280;49036;42.782;23.108;2023-05-19T01:12:33;94168.78;;;7.26
62930;BMP280;49036;42.782;23.108;2023-05-19T01:14:59;94166.53;;;7.32
62930;BMP280;49036;42.782;23.108;2023-05-19T01:17:45;94168.88;;;7.36
62930;BMP280;49036;42.782;23.108;2023-05-19T01:20:21;94169.97;;;7.40
62930;BMP280;49036;42.782;23.108;2023-05-19T01:25:29;94166.50;;;7.40
62930;BMP280;49036;42.782;23.108;2023-05-19T01:28:21;94164.59;;;7.50
62930;BMP280;49036;42.782;23.108;2023-05-19T01:30:55;94161.63;;;7.48
62930;BMP280;49036;42.782;23.108;2023-05-19T01:33:22;94163.81;;;7.57
62930;BMP280;49036;42.782;23.108;2023-05-19T01:35:49;94170.97;;;7.60
62930;BMP280;49036;42.782;23.108;2023-05-19T01:38:16;94161.22;;;7.59
62930;BMP280;49036;42.782;23.108;2023-05-19T01:40:43;94162.16;;;7.54
62930;BMP280;49036;42.782;23.108;2023-05-19T01:43:13;94155.03;;;7.51
62930;BMP280;49036;42.782;23.108;2023-05-19T01:45:39;94154.66;;;7.47
62930;BMP280;49036;42.782;23.108;2023-05-19T01:48:06;94163.81;;;7.57
62930;BMP280;49036;42.782;23.108;2023-05-19T01:50:32;94164.94;;;7.54
62930;BMP280;49036;42.782;23.108;2023-05-19T01:52:58;94166.56;;;7.57
62930;BMP280;49036;42.782;23.108;2023-05-19T01:55:23;94157.03;;;7.50
62930;BMP280;49036;42.782;23.108;2023-05-19T01:58:05;94156.13;;;7.48
62930;BMP280;49036;42.782;23.108;2023-05-19T02:00:58;94158.88;;;7.48
62930;BMP280;49036;42.782;23.108;2023-05-19T02:03:45;94165.69;;;7.47
62930;BMP280;49036;42.782;23.108;2023-05-19T02:06:17;94173.38;;;7.56
62930;BMP280;49036;42.782;23.108;2023-05-19T02:11:36;94159.06;;;7.50
62930;BMP280;49036;42.782;23.108;2023-05-19T02:14:15;94157.59;;;7.49
62930;BMP280;49036;42.782;23.108;2023-05-19T02:16:44;94156.47;;;7.52
62930;BMP280;49036;42.782;23.108;2023-05-19T02:19:21;94164.19;;;7.53
62930;BMP280;49036;42.782;23.108;2023-05-19T02:21:46;94165.84;;;7.56
62930;BMP280;49036;42.782;23.108;2023-05-19T02:24:12;94161.22;;;7.59
62930;BMP280;49036;42.782;23.108;2023-05-19T02:26:37;94160.84;;;7.55
62930;BMP280;49036;42.782;23.108;2023-05-19T02:29:03;94164.19;;;7.53
62930;BMP280;49036;42.782;23.108;2023-05-19T02:31:28;94170.88;;;7.43
62930;BMP280;49036;42.782;23.108;2023-05-19T02:33:54;94172.75;;;7.40
62930;BMP280;49036;42.782;23.108;2023-05-19T02:36:20;94179.94;;;7.43
62930;BMP280;49036;42.782;23.108;2023-05-19T02:38:45;94176.97;;;7.41
62930;BMP280;49036;42.782;23.108;2023-05-19T02:41:11;94181.03;;;7.40
62930;BMP280;49036;42.782;23.108;2023-05-19T02:43:36;94182.44;;;7.49
62930;BMP280;49036;42.782;23.108;2023-05-19T02:46:01;94172.16;;;7.49
62930;BMP280;49036;42.782;23.108;2023-05-19T02:48:27;94179.34;;;7.45
62930;BMP280;49036;42.782;23.108;2023-05-19T02:50:53;94174.59;;;7.38
62930;BMP280;49036;42.782;23.108;2023-05-19T02:53:18;94178.09;;;7.38
62930;BMP280;49036;42.782;23.108;2023-05-19T02:55:43;94175.69;;;7.35
62930;BMP280;49036;42.782;23.108;2023-05-19T02:58:09;94172.06;;;7.32
62930;BMP280;49036;42.782;23.108;2023-05-19T03:00:35;94182.53;;;7.34
62930;BMP280;49036;42.782;23.108;2023-05-19T03:03:00;94179.41;;;7.37
62930;BMP280;49036;42.782;23.108;2023-05-19T03:05:27;94173.13;;;7.37
62930;BMP280;49036;42.782;23.108;2023-05-19T03:07:54;94177.38;;;7.38
62930;BMP280;49036;42.782;23.108;2023-05-19T03:10:20;94189.31;;;7.40
62930;BMP280;49036;42.782;23.108;2023-05-19T03:12:45;94191.69;;;7.36
62930;BMP280;49036;42.782;23.108;2023-05-19T03:15:11;94184.69;;;7.43
62930;BMP280;49036;42.782;23.108;2023-05-19T03:17:40;94188.94;;;7.44
62930;BMP280;49036;42.782;23.108;2023-05-19T03:20:06;94188.72;;;7.49
62930;BMP280;49036;42.782;23.108;2023-05-19T03:22:32;94190.97;;;7.43
62930;BMP280;49036;42.782;23.108;2023-05-19T03:24:57;94193.47;;;7.49
62930;BMP280;49036;42.782;23.108;2023-05-19T03:27:23;94190.28;;;7.60
62930;BMP280;49036;42.782;23.108;2023-05-19T03:29:48;94184.94;;;7.62
62930;BMP280;49036;42.782;23.108;2023-05-19T03:32:14;94193.56;;;7.66
62930;BMP280;49036;42.782;23.108;2023-05-19T03:34:40;94187.66;;;7.70
62930;BMP280;49036;42.782;23.108;2023-05-19T03:37:05;94193.53;;;7.74
62930;BMP280;49036;42.782;23.108;2023-05-19T03:39:31;94191.63;;;7.84
62930;BMP280;49036;42.782;23.108;2023-05-19T03:41:57;94192.28;;;7.92
62930;BMP280;49036;42.782;23.108;2023-05-19T03:44:23;94187.41;;;8.00
62930;BMP280;49036;42.782;23.108;2023-05-19T03:46:48;94191.03;;;8.10
62930;BMP280;49036;42.782;23.108;2023-05-19T03:49:14;94194.28;;;8.16
62930;BMP280;49036;42.782;23.108;2023-05-19T03:51:39;94187.94;;;8.23
62930;BMP280;49036;42.782;23.108;2023-05-19T03:54:05;94194.91;;;8.32
62930;BMP280;49036;42.782;23.108;2023-05-19T03:56:31;94192.06;;;8.40
62930;BMP280;49036;42.782;23.108;2023-05-19T03:58:56;94195.66;;;8.50
62930;BMP280;49036;42.782;23.108;2023-05-19T04:01:22;94201.09;;;8.58
62930;BMP280;49036;42.782;23.108;2023-05-19T04:03:48;94202.66;;;8.68
62930;BMP280;49036;42.782;23.108;2023-05-19T04:06:13;94207.06;;;8.71
62930;BMP280;49036;42.782;23.108;2023-05-19T04:08:39;94206.91;;;8.87
62930;BMP280;49036;42.782;23.108;2023-05-19T04:11:04;94210.44;;;8.97
62930;BMP280;49036;42.782;23.108;2023-05-19T04:13:33;94217.50;;;9.07
62930;BMP280;49036;42.782;23.108;2023-05-19T04:15:59;94211.38;;;9.26
62930;BMP280;49036;42.782;23.108;2023-05-19T04:18:25;94215.97;;;9.41
62930;BMP280;49036;42.782;23.108;2023-05-19T04:20:50;94217.03;;;9.45
62930;BMP280;49036;42.782;23.108;2023-05-19T04:23:16;94216.97;;;9.63
62930;BMP280;49036;42.782;23.108;2023-05-19T04:25:41;94213.97;;;9.68
62930;BMP280;49036;42.782;23.108;2023-05-19T04:28:07;94217.22;;;9.84
62930;BMP280;49036;42.782;23.108;2023-05-19T04:30:32;94209.56;;;10.02
62930;BMP280;49036;42.782;23.108;2023-05-19T04:32:58;94219.38;;;10.22
62930;BMP280;49036;42.782;23.108;2023-05-19T04:35:26;94220.59;;;10.38
62930;BMP280;49036;42.782;23.108;2023-05-19T04:37:51;94228.66;;;10.54
62930;BMP280;49036;42.782;23.108;2023-05-19T04:40:20;94219.75;;;10.55
62930;BMP280;49036;42.782;23.108;2023-05-19T04:42:48;94228.66;;;10.73
62930;BMP280;49036;42.782;23.108;2023-05-19T04:45:14;94223.25;;;10.56
62930;BMP280;49036;42.782;23.108;2023-05-19T04:47:40;94218.69;;;10.51
62930;BMP280;49036;42.782;23.108;2023-05-19T04:50:06;94219.00;;;10.64
62930;BMP280;49036;42.782;23.108;2023-05-19T04:52:32;94222.38;;;10.82
62930;BMP280;49036;42.782;23.108;2023-05-19T04:54:57;94227.19;;;11.01
62930;BMP280;49036;42.782;23.108;2023-05-19T04:57:23;94218.59;;;10.97
62930;BMP280;49036;42.782;23.108;2023-05-19T04:59:48;94230.56;;;10.99
62930;BMP280;49036;42.782;23.108;2023-05-19T05:02:14;94225.59;;;10.88
62930;BMP280;49036;42.782;23.108;2023-05-19T05:04:40;94230.13;;;11.13
62930;BMP280;49036;42.782;23.108;2023-05-19T05:07:11;94226.56;;;11.31
62930;BMP280;49036;42.782;23.108;2023-05-19T05:09:36;94221.47;;;11.28
62930;BMP280;49036;42.782;23.108;2023-05-19T05:12:02;94232.56;;;11.38
62930;BMP280;49036;42.782;23.108;2023-05-19T05:14:28;94231.19;;;11.58
62930;BMP280;49036;42.782;23.108;2023-05-19T05:16:54;94227.63;;;11.77
62930;BMP280;49036;42.782;23.108;2023-05-19T05:19:20;94230.69;;;11.81
62930;BMP280;49036;42.782;23.108;2023-05-19T05:21:46;94234.38;;;11.74
62930;BMP280;49036;42.782;23.108;2023-05-19T05:24:12;94240.22;;;11.78
62930;BMP280;49036;42.782;23.108;2023-05-19T05:26:38;94234.44;;;11.85
62930;BMP280;49036;42.782;23.108;2023-05-19T05:29:03;94234.34;;;11.83
62930;BMP280;49036;42.782;23.108;2023-05-19T05:31:29;94234.94;;;11.82
62930;BMP280;49036;42.782;23.108;2023-05-19T05:33:54;94225.50;;;11.96
62930;BMP280;49036;42.782;23.108;2023-05-19T05:36:19;94224.16;;;11.97
62930;BMP280;49036;42.782;23.108;2023-05-19T05:38:45;94233.88;;;12.18
62930;BMP280;49036;42.782;23.108;2023-05-19T05:41:10;94238.47;;;12.04
62930;BMP280;49036;42.782;23.108;2023-05-19T05:43:36;94235.97;;;12.08
62930;BMP280;49036;42.782;23.108;2023-05-19T05:46:01;94233.47;;;12.12
62930;BMP280;49036;42.782;23.108;2023-05-19T05:48:26;94229.50;;;12.15
62930;BMP280;49036;42.782;23.108;2023-05-19T05:50:52;94242.50;;;12.22
62930;BMP280;49036;42.782;23.108;2023-05-19T05:53:19;94240.75;;;12.17
62930;BMP280;49036;42.782;23.108;2023-05-19T05:55:49;94242.91;;;12.28
62930;BMP280;49036;42.782;23.108;2023-05-19T05:58:15;94243.03;;;12.30
62930;BMP280;49036;42.782;23.108;2023-05-19T06:00:41;94237.34;;;12.49
62930;BMP280;49036;42.782;23.108;2023-05-19T06:03:13;94246.63;;;12.42
62930;BMP280;49036;42.782;23.108;2023-05-19T06:05:38;94246.34;;;12.38
62930;BMP280;49036;42.782;23.108;2023-05-19T06:08:04;94246.16;;;12.46
62930;BMP280;49036;42.782;23.108;2023-05-19T06:10:30;94245.75;;;12.61
62930;BMP280;49036;42.782;23.108;2023-05-19T06:12:55;94246.41;;;12.92
62930;BMP280;49036;42.782;23.108;2023-05-19T06:15:21;94245.34;;;12.98
62930;BMP280;49036;42.782;23.108;2023-05-19T06:17:46;94246.63;;;12.85
62930;BMP280;49036;42.782;23.108;2023-05-19T06:20:12;94252.72;;;12.93
62930;BMP280;49036;42.782;23.108;2023-05-19T06:22:37;94248.03;;;13.07
62930;BMP280;49036;42.782;23.108;2023-05-19T06:25:04;94253.19;;;13.01
62930;BMP280;49036;42.782;23.108;2023-05-19T06:27:30;94257.88;;;13.08
62930;BMP280;49036;42.782;23.108;2023-05-19T06:29:56;94265.13;;;13.13
62930;BMP280;49036;42.782;23.108;2023-05-19T06:32:21;94254.09;;;13.04
62930;BMP280;49036;42.782;23.108;2023-05-19T06:34:46;94250.53;;;13.24
62930;BMP280;49036;42.782;23.108;2023-05-19T06:37:22;94261.75;;;13.48
62930;BMP280;49036;42.782;23.108;2023-05-19T06:39:51;94256.06;;;13.57
62930;BMP280;49036;42.782;23.108;2023-05-19T06:42:20;94257.66;;;13.60
62930;BMP280;49036;42.782;23.108;2023-05-19T06:44:49;94256.69;;;13.68
62930;BMP280;49036;42.782;23.108;2023-05-19T06:47:16;94267.50;;;13.73
62930;BMP280;49036;42.782;23.108;2023-05-19T06:49:42;94259.25;;;13.87
62930;BMP280;49036;42.782;23.108;2023-05-19T06:52:08;94261.91;;;13.96
62930;BMP280;49036;42.782;23.108;2023-05-19T06:54:33;94262.78;;;13.99
62930;BMP280;49036;42.782;23.108;2023-05-19T06:56:59;94264.81;;;14.22
62930;BMP280;49036;42.782;23.108;2023-05-19T06:59:24;94259.47;;;14.14
62930;BMP280;49036;42.782;23.108;2023-05-19T07:01:50;94265.91;;;14.40
62930;BMP280;49036;42.782;23.108;2023-05-19T07:04:15;94265.53;;;14.46
62930;BMP280;49036;42.782;23.108;2023-05-19T07:06:41;94270.72;;;14.63
62930;BMP280;49036;42.782;23.108;2023-05-19T07:09:06;94277.47;;;14.83
62930;BMP280;49036;42.782;23.108;2023-05-19T07:11:33;94267.72;;;14.96
62930;BMP280;49036;42.782;23.108;2023-05-19T07:13:58;94262.59;;;14.92
62930;BMP280;49036;42.782;23.108;2023-05-19T07:16:24;94281.69;;;14.96
62930;BMP280;49036;42.782;23.108;2023-05-19T07:18:50;94274.88;;;14.87
62930;BMP280;49036;42.782;23.108;2023-05-19T07:21:15;94275.19;;;15.05
62930;BMP280;49036;42.782;23.108;2023-05-19T07:23:41;94286.75;;;15.00
62930;BMP280;49036;42.782;23.108;2023-05-19T07:26:06;94281.00;;;15.09
62930;BMP280;49036;42.782;23.108;2023-05-19T07:28:32;94281.75;;;15.35
62930;BMP280;49036;42.782;23.108;2023-05-19T07:30:59;94280.31;;;15.34
62930;BMP280;49036;42.782;23.108;2023-05-19T07:33:25;94284.44;;;15.58
62930;BMP280;49036;42.782;23.108;2023-05-19T07:35:51;94275.75;;;15.41
62930;BMP280;49036;42.782;23.108;2023-05-19T07:38:17;94273.97;;;15.59
62930;BMP280;49036;42.782;23.108;2023-05-19T07:40:42;94271.81;;;15.71
62930;BMP280;49036;42.782;23.108;2023-05-19T07:43:08;94271.94;;;16.14
62930;BMP280;49036;42.782;23.108;2023-05-19T07:45:36;94278.41;;;16.30
62930;BMP280;49036;42.782;23.108;2023-05-19T07:48:01;94273.28;;;16.54
62930;BMP280;49036;42.782;23.108;2023-05-19T07:50:27;94277.34;;;16.38
62930;BMP280;49036;42.782;23.108;2023-05-19T07:52:52;94284.06;;;16.32
62930;BMP280;49036;42.782;23.108;2023-05-19T07:55:18;94277.25;;;16.49
62930;BMP280;49036;42.782;23.108;2023-05-19T07:57:46;94271.19;;;16.98
62930;BMP280;49036;42.782;23.108;2023-05-19T08:00:12;94270.78;;;16.74
62930;BMP280;49036;42.782;23.108;2023-05-19T08:04:06;94267.72;;;16.84
62930;BMP280;49036;42.782;23.108;2023-05-19T08:06:32;94268.44;;;16.84
62930;BMP280;49036;42.782;23.108;2023-05-19T08:10:40;94276.25;;;17.31
62930;BMP280;49036;42.782;23.108;2023-05-19T08:13:06;94277.63;;;17.30
62930;BMP280;49036;42.782;23.108;2023-05-19T08:15:31;94274.69;;;17.12
62930;BMP280;49036;42.782;23.108;2023-05-19T08:17:57;94278.41;;;17.17
62930;BMP280;49036;42.782;23.108;2023-05-19T08:20:22;94281.63;;;17.41
62930;BMP280;49036;42.782;23.108;2023-05-19T08:22:48;94273.97;;;17.88
62930;BMP280;49036;42.782;23.108;2023-05-19T08:25:14;94266.91;;;18.03
62930;BMP280;49036;42.782;23.108;2023-05-19T08:27:39;94264.94;;;18.39
62930;BMP280;49036;42.782;23.108;2023-05-19T08:30:05;94260.00;;;18.06
62930;BMP280;49036;42.782;23.108;2023-05-19T08:32:31;94270.06;;;18.45
62930;BMP280;49036;42.782;23.108;2023-05-19T08:34:56;94265.25;;;18.81
62930;BMP280;49036;42.782;23.108;2023-05-19T08:37:22;94268.47;;;19.26
62930;BMP280;49036;42.782;23.108;2023-05-19T08:39:47;94264.63;;;19.00
62930;BMP280;49036;42.782;23.108;2023-05-19T08:42:13;94266.53;;;18.60
62930;BMP280;49036;42.782;23.108;2023-05-19T08:44:38;94261.31;;;18.36
62930;BMP280;49036;42.782;23.108;2023-05-19T08:47:06;94271.88;;;18.54
62930;BMP280;49036;42.782;23.108;2023-05-19T08:49:43;94265.53;;;18.71
62930;BMP280;49036;42.782;23.108;2023-05-19T08:52:18;94256.38;;;19.24
62930;BMP280;49036;42.782;23.108;2023-05-19T08:54:54;94254.56;;;20.07
62930;BMP280;49036;42.782;23.108;2023-05-19T08:57:26;94262.44;;;20.52
62930;BMP280;49036;42.782;23.108;2023-05-19T08:59:53;94266.09;;;20.57
62930;BMP280;49036;42.782;23.108;2023-05-19T09:02:20;94265.13;;;21.14
62930;BMP280;49036;42.782;23.108;2023-05-19T09:04:46;94263.81;;;21.17
62930;BMP280;49036;42.782;23.108;2023-05-19T09:07:15;94256.06;;;21.41
62930;BMP280;49036;42.782;23.108;2023-05-19T09:09:43;94251.34;;;21.74
62930;BMP280;49036;42.782;23.108;2023-05-19T09:12:12;94252.91;;;21.29
62930;BMP280;49036;42.782;23.108;2023-05-19T09:14:38;94255.72;;;21.07
62930;BMP280;49036;42.782;23.108;2023-05-19T09:17:04;94251.78;;;21.16
62930;BMP280;49036;42.782;23.108;2023-05-19T09:19:30;94246.94;;;21.43
62930;BMP280;49036;42.782;23.108;2023-05-19T09:22:01;94254.78;;;21.22
62930;BMP280;49036;42.782;23.108;2023-05-19T09:24:30;94247.97;;;21.08
62930;BMP280;49036;42.782;23.108;2023-05-19T09:26:58;94245.06;;;21.27
62930;BMP280;49036;42.782;23.108;2023-05-19T09:29:24;94224.91;;;20.91
62930;BMP280;49036;42.782;23.108;2023-05-19T09:31:54;94235.34;;;21.56
62930;BMP280;49036;42.782;23.108;2023-05-19T09:34:25;94241.25;;;21.92
62930;BMP280;49036;42.782;23.108;2023-05-19T09:36:52;94239.72;;;22.41
62930;BMP280;49036;42.782;23.108;2023-05-19T09:39:20;94230.25;;;22.58
62930;BMP280;49036;42.782;23.108;2023-05-19T09:41:46;94231.81;;;22.95
62930;BMP280;49036;42.782;23.108;2023-05-19T09:44:25;94233.56;;;23.42
62930;BMP280;49036;42.782;23.108;2023-05-19T09:46:55;94233.16;;;23.92
62930;BMP280;49036;42.782;23.108;2023-05-19T09:49:25;94223.34;;;23.99
62930;BMP280;49036;42.782;23.108;2023-05-19T09:51:58;94239.72;;;24.03
62930;BMP280;49036;42.782;23.108;2023-05-19T09:54:24;94230.53;;;24.44
62930;BMP280;49036;42.782;23.108;2023-05-19T09:57:02;94237.66;;;24.47
62930;BMP280;49036;42.782;23.108;2023-05-19T09:59:29;94233.41;;;24.48
62930;BMP280;49036;42.782;23.108;2023-05-19T10:01:57;94231.78;;;24.79
62930;BMP280;49036;42.782;23.108;2023-05-19T10:05:15;94237.31;;;25.75
62930;BMP280;49036;42.782;23.108;2023-05-19T10:07:49;94234.22;;;26.17
62930;BMP280;49036;42.782;23.108;2023-05-19T10:10:15;94229.50;;;25.76
62930;BMP280;49036;42.782;23.108;2023-05-19T10:14:41;94234.16;;;26.11
62930;BMP280;49036;42.782;23.108;2023-05-19T10:17:08;94230.47;;;26.85
62930;BMP280;49036;42.782;23.108;2023-05-19T10:19:34;94222.22;;;27.40
62930;BMP280;49036;42.782;23.108;2023-05-19T10:22:01;94220.63;;;27.02
62930;BMP280;49036;42.782;23.108;2023-05-19T10:24:26;94223.25;;;25.27
62930;BMP280;49036;42.782;23.108;2023-05-19T10:28:10;94222.22;;;24.56
62930;BMP280;49036;42.782;23.108;2023-05-19T10:30:40;94213.81;;;24.64
62930;BMP280;49036;42.782;23.108;2023-05-19T10:33:15;94210.00;;;24.48
62930;BMP280;49036;42.782;23.108;2023-05-19T10:44:07;94214.41;;;25.59
62930;BMP280;49036;42.782;23.108;2023-05-19T10:46:33;94211.16;;;25.89
62930;BMP280;49036;42.782;23.108;2023-05-19T10:50:55;94208.88;;;26.54
62930;BMP280;49036;42.782;23.108;2023-05-19T10:53:20;94204.91;;;26.93
62930;BMP280;49036;42.782;23.108;2023-05-19T10:55:54;94207.06;;;26.04
62930;BMP280;49036;42.782;23.108;2023-05-19T11:01:29;94205.41;;;25.23
62930;BMP280;49036;42.782;23.108;2023-05-19T11:03:54;94202.75;;;26.98
62930;BMP280;49036;42.782;23.108;2023-05-19T11:06:29;94188.16;;;27.96
62930;BMP280;49036;42.782;23.108;2023-05-19T11:09:17;94198.16;;;28.36
62930;BMP280;49036;42.782;23.108;2023-05-19T11:11:53;94189.47;;;29.01
62930;BMP280;49036;42.782;23.108;2023-05-19T11:14:25;94197.63;;;29.86
62930;BMP280;49036;42.782;23.108;2023-05-19T11:16:55;94191.59;;;30.24
62930;BMP280;49036;42.782;23.108;2023-05-19T11:19:33;94192.91;;;30.37
62930;BMP280;49036;42.782;23.108;2023-05-19T11:22:10;94194.13;;;30.65
62930;BMP280;49036;42.782;23.108;2023-05-19T11:24:44;94194.97;;;29.55
62930;BMP280;49036;42.782;23.108;2023-05-19T11:27:28;94190.84;;;29.08
62930;BMP280;49036;42.782;23.108;2023-05-19T11:32:20;94193.03;;;29.03
62930;BMP280;49036;42.782;23.108;2023-05-19T11:35:10;94202.13;;;27.09
62930;BMP280;49036;42.782;23.108;2023-05-19T11:37:35;94191.72;;;27.95
62930;BMP280;49036;42.782;23.108;2023-05-19T11:40:03;94182.34;;;28.94
62930;BMP280;49036;42.782;23.108;2023-05-19T11:42:33;94163.13;;;30.08
62930;BMP280;49036;42.782;23.108;2023-05-19T11:45:02;94188.75;;;30.24
62930;BMP280;49036;42.782;23.108;2023-05-19T11:50:18;94180.53;;;26.68
62930;BMP280;49036;42.782;23.108;2023-05-19T11:52:44;94183.25;;;26.50
62930;BMP280;49036;42.782;23.108;2023-05-19T11:55:18;94181.03;;;28.40
62930;BMP280;49036;42.782;23.108;2023-05-19T11:57:55;94177.41;;;28.68
62930;BMP280;49036;42.782;23.108;2023-05-19T12:00:25;94173.16;;;30.82
62930;BMP280;49036;42.782;23.108;2023-05-19T12:02:51;94173.88;;;30.03
62930;BMP280;49036;42.782;23.108;2023-05-19T12:06:52;94165.84;;;26.09
62930;BMP280;49036;42.782;23.108;2023-05-19T12:09:21;94177.50;;;25.67
62930;BMP280;49036;42.782;23.108;2023-05-19T12:11:46;94172.44;;;27.81
62930;BMP280;49036;42.782;23.108;2023-05-19T12:14:12;94171.75;;;28.19
62930;BMP280;49036;42.782;23.108;2023-05-19T12:16:37;94181.69;;;27.94
62930;BMP280;49036;42.782;23.108;2023-05-19T12:19:07;94172.16;;;27.00
62930;BMP280;49036;42.782;23.108;2023-05-19T12:21:32;94173.44;;;26.75
62930;BMP280;49036;42.782;23.108;2023-05-19T12:23:58;94162.13;;;26.91
62930;BMP280;49036;42.782;23.108;2023-05-19T12:26:24;94165.25;;;27.60
62930;BMP280;49036;42.782;23.108;2023-05-19T12:28:50;94163.50;;;26.78
62930;BMP280;49036;42.782;23.108;2023-05-19T12:31:17;94167.09;;;25.90
62930;BMP280;49036;42.782;23.108;2023-05-19T12:33:44;94177.53;;;24.59
62930;BMP280;49036;42.782;23.108;2023-05-19T12:37:46;94182.91;;;22.31
62930;BMP280;49036;42.782;23.108;2023-05-19T12:40:14;94193.97;;;21.17
62930;BMP280;49036;42.782;23.108;2023-05-19T12:42:43;94193.06;;;21.86
62930;BMP280;49036;42.782;23.108;2023-05-19T12:45:09;94194.94;;;23.23
62930;BMP280;49036;42.782;23.108;2023-05-19T12:47:35;94194.28;;;23.98
62930;BMP280;49036;42.782;23.108;2023-05-19T12:50:08;94192.22;;;24.03
62930;BMP280;49036;42.782;23.108;2023-05-19T12:52:41;94197.09;;;24.87
62930;BMP280;49036;42.782;23.108;2023-05-19T12:55:07;94200.75;;;25.47
62930;BMP280;49036;42.782;23.108;2023-05-19T12:57:39;94201.91;;;25.88
62930;BMP280;49036;42.782;23.108;2023-05-19T13:00:07;94204.00;;;25.84
62930;BMP280;49036;42.782;23.108;2023-05-19T13:02:52;94201.28;;;26.89
62930;BMP280;49036;42.782;23.108;2023-05-19T13:05:19;94194.16;;;26.88
62930;BMP280;49036;42.782;23.108;2023-05-19T13:07:55;94193.66;;;24.46
62930;BMP280;49036;42.782;23.108;2023-05-19T13:10:22;94188.59;;;23.60
62930;BMP280;49036;42.782;23.108;2023-05-19T13:12:47;94188.06;;;22.38
62930;BMP280;49036;42.782;23.108;2023-05-19T13:15:13;94195.28;;;21.64
62930;BMP280;49036;42.782;23.108;2023-05-19T13:17:38;94189.53;;;21.10
62930;BMP280;49036;42.782;23.108;2023-05-19T13:20:04;94195.34;;;20.49
62930;BMP280;49036;42.782;23.108;2023-05-19T13:22:30;94195.00;;;20.17
62930;BMP280;49036;42.782;23.108;2023-05-19T13:24:55;94194.72;;;20.09
62930;BMP280;49036;42.782;23.108;2023-05-19T13:27:26;94192.94;;;19.98
62930;BMP280;49036;42.782;23.108;2023-05-19T13:29:51;94193.94;;;20.06
62930;BMP280;49036;42.782;23.108;2023-05-19T13:32:17;94187.88;;;20.36
62930;BMP280;49036;42.782;23.108;2023-05-19T13:34:42;94180.72;;;20.33
62930;BMP280;49036;42.782;23.108;2023-05-19T13:37:08;94178.34;;;20.69
62930;BMP280;49036;42.782;23.108;2023-05-19T13:39:34;94187.16;;;20.79
62930;BMP280;49036;42.782;23.108;2023-05-19T13:42:00;94180.94;;;21.06
62930;BMP280;49036;42.782;23.108;2023-05-19T13:44:25;94179.16;;;21.19
62930;BMP280;49036;42.782;23.108;2023-05-19T13:48:50;94196.75;;;21.41
62930;BMP280;49036;42.782;23.108;2023-05-19T13:51:16;94190.84;;;21.57
62930;BMP280;49036;42.782;23.108;2023-05-19T13:53:42;94202.47;;;21.69
62930;BMP280;49036;42.782;23.108;2023-05-19T13:58:04;94191.66;;;22.13
62930;BMP280;49036;42.782;23.108;2023-05-19T14:00:30;94183.41;;;21.95
62930;BMP280;49036;42.782;23.108;2023-05-19T14:02:56;94185.50;;;22.21
62930;BMP280;49036;42.782;23.108;2023-05-19T14:05:21;94186.44;;;22.31
62930;BMP280;49036;42.782;23.108;2023-05-19T14:07:47;94181.97;;;22.22
62930;BMP280;49036;42.782;23.108;2023-05-19T14:10:12;94182.13;;;22.00
62930;BMP280;49036;42.782;23.108;2023-05-19T14:12:38;94186.69;;;21.86
62930;BMP280;49036;42.782;23.108;2023-05-19T14:15:05;94187.31;;;21.56
62930;BMP280;49036;42.782;23.108;2023-05-19T14:17:30;94187.13;;;21.76
62930;BMP280;49036;42.782;23.108;2023-05-19T14:19:57;94188.94;;;21.65
62930;BMP280;49036;42.782;23.108;2023-05-19T14:22:22;94190.97;;;21.87
62930;BMP280;49036;42.782;23.108;2023-05-19T14:24:47;94175.69;;;21.98
62930;BMP280;49036;42.782;23.108;2023-05-19T14:27:13;94182.25;;;21.79
62930;BMP280;49036;42.782;23.108;2023-05-19T14:30:07;94177.81;;;21.97
62930;BMP280;49036;42.782;23.108;2023-05-19T14:32:32;94180.53;;;21.93
62930;BMP280;49036;42.782;23.108;2023-05-19T14:34:58;94182.09;;;22.26
62930;BMP280;49036;42.782;23.108;2023-05-19T14:37:23;94177.28;;;22.33
62930;BMP280;49036;42.782;23.108;2023-05-19T14:41:15;94185.75;;;22.93
62930;BMP280;49036;42.782;23.108;2023-05-19T14:43:41;94180.28;;;23.35